Time;durP1;ratioP1;P1;durP2;ratioP2;P2;SDS_P1;SDS_P2;PMS_P1;PMS_P2;Temp;Humidity;BMP_temperature;BMP_pressure;BME280_temperature;BME280_humidity;BME280_pressure;Samples;Min_cycle;Max_cycle;Signal;HPM_P1;HPM_P2
2023/08/05 00:00:42;;;;;;;0.10;0.10;;;;;;;;;;5093459;28;20416;-60
2023/08/05 00:03:09;;;;;;;0.10;0.10;;;;;;;;;;5094344;28;20235;-59
2023/08/05 00:05:37;;;;;;;0.10;0.10;;;;;;;;;;5093372;28;20044;-60
2023/08/05 00:08:06;;;;;;;0.10;0.10;;;;;;;;;;5094236;28;20499;-59
2023/08/05 00:10:33;;;;;;;0.00;0.00;;;;;;;;;;5094500;28;20051;-60
2023/08/05 00:13:00;;;;;;;0.10;0.10;;;;;;;;;;5094231;28;20116;-60
2023/08/05 00:15:27;;;;;;;0.05;0.05;;;;;;;;;;5093134;28;20131;-59
2023/08/05 00:17:55;;;;;;;0.17;0.17;;;;;;;;;;5094823;28;20059;-59
2023/08/05 00:20:22;;;;;;;0.10;0.10;;;;;;;;;;5094046;28;20505;-59
2023/08/05 00:22:49;;;;;;;0.05;0.05;;;;;;;;;;5094517;28;20048;-59
2023/08/05 00:25:18;;;;;;;0.10;0.10;;;;;;;;;;5094106;28;20509;-59
2023/08/05 00:27:45;;;;;;;0.10;0.10;;;;;;;;;;5094151;28;20040;-59
2023/08/05 00:30:12;;;;;;;0.10;0.10;;;;;;;;;;5094211;28;20048;-59
2023/08/05 00:32:39;;;;;;;0.10;0.10;;;;;;;;;;5092889;28;20043;-59
2023/08/05 00:35:07;;;;;;;0.00;0.00;;;;;;;;;;5094010;28;20130;-59
2023/08/05 00:37:34;;;;;;;0.10;0.10;;;;;;;;;;5093707;28;20074;-59
2023/08/05 00:40:01;;;;;;;0.10;0.10;;;;;;;;;;5093854;28;20040;-59
2023/08/05 00:42:30;;;;;;;0.10;0.10;;;;;;;;;;5092735;28;20068;-59
2023/08/05 00:44:58;;;;;;;0.10;0.10;;;;;;;;;;5094101;28;20040;-59
2023/08/05 00:47:28;;;;;;;0.03;0.03;;;;;;;;;;5093968;28;20458;-59
2023/08/05 00:49:56;;;;;;;0.10;0.10;;;;;;;;;;5093676;28;20136;-59
2023/08/05 00:52:24;;;;;;;0.03;0.03;;;;;;;;;;5092856;28;20099;-59
2023/08/05 00:54:51;;;;;;;0.00;0.00;;;;;;;;;;5091663;28;20490;-59
2023/08/05 00:57:19;;;;;;;0.10;0.10;;;;;;;;;;5093543;28;20040;-59
2023/08/05 00:59:47;;;;;;;0.08;0.08;;;;;;;;;;5091874;28;20394;-59
2023/08/05 01:02:14;;;;;;;0.00;0.00;;;;;;;;;;5092082;28;20035;-59
2023/08/05 01:04:43;;;;;;;0.10;0.10;;;;;;;;;;5091935;28;20110;-59
2023/08/05 01:07:10;;;;;;;0.10;0.10;;;;;;;;;;5093479;28;20356;-59
2023/08/05 01:09:37;;;;;;;0.10;0.10;;;;;;;;;;5093224;28;20375;-59
2023/08/05 01:12:05;;;;;;;0.10;0.10;;;;;;;;;;5093000;28;20046;-59
2023/08/05 01:14:32;;;;;;;0.03;0.03;;;;;;;;;;5093212;28;20040;-59
2023/08/05 01:17:02;;;;;;;0.00;0.00;;;;;;;;;;5108809;28;20092;-59
2023/08/05 01:19:29;;;;;;;0.10;0.10;;;;;;;;;;5091701;28;20048;-59
2023/08/05 01:21:57;;;;;;;0.10;0.10;;;;;;;;;;5093077;28;20060;-59
2023/08/05 01:24:26;;;;;;;0.10;0.10;;;;;;;;;;5092486;28;20048;-59
2023/08/05 01:26:54;;;;;;;0.10;0.10;;;;;;;;;;5092954;28;20055;-59
2023/08/05 01:29:22;;;;;;;0.05;0.05;;;;;;;;;;5092911;28;20044;-59
2023/08/05 01:31:49;;;;;;;0.10;0.10;;;;;;;;;;5093285;28;20044;-59
2023/08/05 01:34:17;;;;;;;0.10;0.10;;;;;;;;;;5092685;28;20044;-59
2023/08/05 01:36:44;;;;;;;0.00;0.00;;;;;;;;;;5092814;28;20047;-59
2023/08/05 01:39:11;;;;;;;0.10;0.10;;;;;;;;;;5092478;28;20056;-59
2023/08/05 01:41:38;;;;;;;0.10;0.10;;;;;;;;;;5092588;28;20040;-59
2023/08/05 01:44:09;;;;;;;0.10;0.10;;;;;;;;;;5091364;28;20041;-59
2023/08/05 01:46:36;;;;;;;0.10;0.10;;;;;;;;;;5091335;28;20131;-59
2023/08/05 01:49:03;;;;;;;0.10;0.10;;;;;;;;;;5091278;28;20040;-59
2023/08/05 01:51:30;;;;;;;0.10;0.10;;;;;;;;;;5092456;28;20044;-59
2023/08/05 01:53:58;;;;;;;0.10;0.10;;;;;;;;;;5091407;28;20058;-59
2023/08/05 01:56:25;;;;;;;0.10;0.10;;;;;;;;;;5090987;28;20066;-59
2023/08/05 01:58:55;;;;;;;0.10;0.10;;;;;;;;;;5091204;28;20540;-59
2023/08/05 02:01:24;;;;;;;0.10;0.10;;;;;;;;;;5108419;28;20098;-59
2023/08/05 02:03:51;;;;;;;0.10;0.10;;;;;;;;;;5092619;28;20068;-59
2023/08/05 02:06:18;;;;;;;0.08;0.08;;;;;;;;;;5092232;28;20076;-59
2023/08/05 02:08:45;;;;;;;0.10;0.10;;;;;;;;;;5092751;28;20047;-59
2023/08/05 02:11:15;;;;;;;;;;;;;;;;;;5074625;28;20050;-59
2023/08/05 02:13:42;;;;;;;0.10;0.10;;;;;;;;;;5090864;28;19924;-59
2023/08/05 02:16:13;;;;;;;0.10;0.10;;;;;;;;;;5092265;28;20040;-59
2023/08/05 02:18:42;;;;;;;0.10;0.10;;;;;;;;;;5091813;28;20219;-58
2023/08/05 02:21:09;;;;;;;0.10;0.10;;;;;;;;;;5090955;28;20076;-59
2023/08/05 02:23:37;;;;;;;0.10;0.10;;;;;;;;;;5074305;28;20044;-59
2023/08/05 02:26:04;;;;;;;0.10;0.10;;;;;;;;;;5091102;28;20052;-59
2023/08/05 02:28:31;;;;;;;0.10;0.10;;;;;;;;;;5092076;28;20055;-59
2023/08/05 02:30:58;;;;;;;0.05;0.05;;;;;;;;;;5092558;28;20068;-59
2023/08/05 02:33:26;;;;;;;0.10;0.10;;;;;;;;;;5091978;28;20456;-59
2023/08/05 02:35:58;;;;;;;0.10;0.10;;;;;;;;;;5092246;28;20048;-59
2023/08/05 02:38:25;;;;;;;0.10;0.10;;;;;;;;;;5107716;28;20336;-59
2023/08/05 02:40:53;;;;;;;0.05;0.05;;;;;;;;;;5090638;28;20097;-59
2023/08/05 02:43:20;;;;;;;0.00;0.00;;;;;;;;;;5092543;28;20489;-59
2023/08/05 02:45:52;;;;;;;0.13;0.13;;;;;;;;;;5091867;28;20046;-59
2023/08/05 02:48:19;;;;;;;0.10;0.10;;;;;;;;;;5091674;28;20471;-60
2023/08/05 02:50:47;;;;;;;0.00;0.00;;;;;;;;;;5091896;28;20135;-59
2023/08/05 02:53:15;;;;;;;0.10;0.10;;;;;;;;;;5092100;28;20372;-59
2023/08/05 02:55:43;;;;;;;0.10;0.10;;;;;;;;;;5091896;28;20051;-59
2023/08/05 02:58:10;;;;;;;0.10;0.10;;;;;;;;;;5090429;28;20127;-59
2023/08/05 03:00:37;;;;;;;0.10;0.10;;;;;;;;;;5091658;28;20052;-59
2023/08/05 03:03:04;;;;;;;0.10;0.10;;;;;;;;;;5090555;28;20089;-59
2023/08/05 03:05:32;;;;;;;0.10;0.10;;;;;;;;;;5091827;28;20394;-59
2023/08/05 03:07:59;;;;;;;0.10;0.10;;;;;;;;;;5091697;28;20113;-59
2023/08/05 03:10:28;;;;;;;0.10;0.10;;;;;;;;;;5090467;28;20119;-59
2023/08/05 03:12:55;;;;;;;0.10;0.10;;;;;;;;;;5091655;28;20044;-58
2023/08/05 03:15:22;;;;;;;0.10;0.10;;;;;;;;;;5107413;28;20047;-59
2023/08/05 03:17:50;;;;;;;0.10;0.10;;;;;;;;;;5090679;28;20042;-59
2023/08/05 03:20:26;;;;;;;0.10;0.10;;;;;;;;;;5090641;28;20093;-59
2023/08/05 03:22:56;;;;;;;0.10;0.10;;;;;;;;;;5107396;28;20047;-59
2023/08/05 03:25:25;;;;;;;0.10;0.10;;;;;;;;;;5089905;28;20087;-58
2023/08/05 03:27:57;;;;;;;0.10;0.10;;;;;;;;;;5107422;28;20040;-59
2023/08/05 03:30:25;;;;;;;0.10;0.10;;;;;;;;;;5090281;28;20136;-59
2023/08/05 03:32:55;;;;;;;0.20;0.20;;;;;;;;;;5090250;28;20063;-59
2023/08/05 03:35:25;;;;;;;0.20;0.20;;;;;;;;;;5091574;28;20101;-59
2023/08/05 03:37:54;;;;;;;0.20;0.20;;;;;;;;;;5093798;28;20103;-62
2023/08/05 03:40:21;;;;;;;0.10;0.10;;;;;;;;;;5093639;28;20056;-59
2023/08/05 03:42:49;;;;;;;0.10;0.10;;;;;;;;;;5094406;28;20483;-59
2023/08/05 03:45:19;;;;;;;0.10;0.10;;;;;;;;;;5093344;28;20548;-59
2023/08/05 03:47:49;;;;;;;0.13;0.13;;;;;;;;;;5093739;28;20044;-59
2023/08/05 03:50:18;;;;;;;;;;;;;;;;;;5094244;28;20449;-59
2023/08/05 03:52:45;;;;;;;0.10;0.10;;;;;;;;;;5093905;28;19920;-59
2023/08/05 03:55:12;;;;;;;0.10;0.10;;;;;;;;;;5095196;28;20055;-59
2023/08/05 03:57:40;;;;;;;0.10;0.10;;;;;;;;;;5093662;28;20044;-59
2023/08/05 04:00:09;;;;;;;0.20;0.20;;;;;;;;;;5093294;28;20101;-59
2023/08/05 04:02:48;;;;;;;0.10;0.10;;;;;;;;;;5093374;28;20068;-59
2023/08/05 04:05:16;;;;;;;0.10;0.10;;;;;;;;;;5093260;28;20044;-59
2023/08/05 04:07:46;;;;;;;0.10;0.10;;;;;;;;;;5094511;28;20056;-59
2023/08/05 04:10:13;;;;;;;0.10;0.10;;;;;;;;;;5094456;28;20036;-59
2023/08/05 04:12:43;;;;;;;0.10;0.10;;;;;;;;;;5094428;28;20051;-59
2023/08/05 04:15:13;;;;;;;0.10;0.10;;;;;;;;;;5093073;28;20487;-59
2023/08/05 04:17:42;;;;;;;0.10;0.10;;;;;;;;;;5110106;28;20097;-59
2023/08/05 04:20:12;;;;;;;0.10;0.10;;;;;;;;;;5094329;28;20048;-59
2023/08/05 04:22:39;;;;;;;0.15;0.15;;;;;;;;;;5093146;28;20048;-59
2023/08/05 04:25:07;;;;;;;0.10;0.10;;;;;;;;;;5109899;28;20062;-59
2023/08/05 04:27:34;;;;;;;0.17;0.17;;;;;;;;;;5094016;28;20087;-59
2023/08/05 04:30:02;;;;;;;0.20;0.20;;;;;;;;;;5094088;28;20048;-59
2023/08/05 04:32:30;;;;;;;0.20;0.20;;;;;;;;;;5093893;28;20047;-59
2023/08/05 04:34:57;;;;;;;0.20;0.20;;;;;;;;;;5094251;28;20385;-59
2023/08/05 04:37:27;;;;;;;0.20;0.20;;;;;;;;;;5093807;28;20142;-59
2023/08/05 04:39:55;;;;;;;0.20;0.20;;;;;;;;;;5093288;28;20458;-59
2023/08/05 04:42:22;;;;;;;0.20;0.20;;;;;;;;;;5093972;28;20040;-59
2023/08/05 04:44:49;;;;;;;0.20;0.20;;;;;;;;;;5109590;28;20068;-59
2023/08/05 04:47:16;;;;;;;0.20;0.20;;;;;;;;;;5092082;28;20086;-60
2023/08/05 04:49:44;;;;;;;0.25;0.25;;;;;;;;;;5092788;28;20102;-59
2023/08/05 04:52:12;;;;;;;0.20;0.20;;;;;;;;;;5093463;28;20068;-59
2023/08/05 04:54:40;;;;;;;0.20;0.20;;;;;;;;;;5093393;28;20044;-59
2023/08/05 04:57:07;;;;;;;0.10;0.10;;;;;;;;;;5093611;28;20459;-59
2023/08/05 04:59:35;;;;;;;0.10;0.10;;;;;;;;;;5093052;28;20055;-59
2023/08/05 05:02:02;;;;;;;0.20;0.20;;;;;;;;;;5093405;28;20219;-59
2023/08/05 05:04:31;;;;;;;0.10;0.10;;;;;;;;;;5109087;28;20039;-59
2023/08/05 05:07:01;;;;;;;0.10;0.10;;;;;;;;;;5093589;28;20114;-64
2023/08/05 05:09:28;;;;;;;0.20;0.20;;;;;;;;;;5093157;28;20062;-59
2023/08/05 05:12:00;;;;;;;0.10;0.10;;;;;;;;;;5093403;28;20070;-59
2023/08/05 05:14:30;;;;;;;0.10;0.10;;;;;;;;;;5093074;28;20040;-59
2023/08/05 05:16:57;;;;;;;0.10;0.10;;;;;;;;;;5091617;28;20047;-59
2023/08/05 05:19:24;;;;;;;0.10;0.10;;;;;;;;;;5092966;28;20119;-59
2023/08/05 05:21:56;;;;;;;0.10;0.10;;;;;;;;;;5092985;28;20051;-59
2023/08/05 05:24:23;;;;;;;0.00;0.00;;;;;;;;;;5092952;28;20044;-60
2023/08/05 05:26:50;;;;;;;0.00;0.00;;;;;;;;;;5092864;28;20467;-59
2023/08/05 05:29:20;;;;;;;0.10;0.10;;;;;;;;;;5091802;28;20134;-59
2023/08/05 05:31:48;;;;;;;0.10;0.10;;;;;;;;;;5091732;28;20044;-60
2023/08/05 05:34:15;;;;;;;0.10;0.10;;;;;;;;;;5093023;28;20044;-59
2023/08/05 05:36:42;;;;;;;0.10;0.10;;;;;;;;;;5092647;28;20044;-60
2023/08/05 05:39:09;;;;;;;0.10;0.10;;;;;;;;;;5092423;28;20055;-59
2023/08/05 05:41:36;;;;;;;0.10;0.10;;;;;;;;;;5092583;28;20063;-59
2023/08/05 05:44:04;;;;;;;0.10;0.10;;;;;;;;;;5091471;28;20421;-59
2023/08/05 05:46:33;;;;;;;0.10;0.10;;;;;;;;;;5093233;28;20036;-63
2023/08/05 05:49:01;;;;;;;0.10;0.10;;;;;;;;;;5092848;28;20040;-60
2023/08/05 05:51:28;;;;;;;0.10;0.10;;;;;;;;;;5092328;28;20072;-59
2023/08/05 05:53:57;;;;;;;0.10;0.10;;;;;;;;;;5092427;28;20044;-59
2023/08/05 05:56:24;;;;;;;0.10;0.10;;;;;;;;;;5092458;28;20349;-60
2023/08/05 05:58:55;;;;;;;0.10;0.10;;;;;;;;;;5091497;28;20058;-59
2023/08/05 06:01:23;;;;;;;0.10;0.10;;;;;;;;;;5092343;28;20475;-59
2023/08/05 06:03:51;;;;;;;0.20;0.20;;;;;;;;;;5092218;28;20467;-59
2023/08/05 06:06:19;;;;;;;0.10;0.10;;;;;;;;;;5092386;28;20055;-59
2023/08/05 06:08:46;;;;;;;0.20;0.20;;;;;;;;;;5092613;28;20044;-59
2023/08/05 06:11:13;;;;;;;0.20;0.20;;;;;;;;;;5093104;28;20181;-59
2023/08/05 06:13:43;;;;;;;0.20;0.20;;;;;;;;;;5090890;28;20144;-59
2023/08/05 06:16:10;;;;;;;0.10;0.10;;;;;;;;;;5091339;28;20491;-60
2023/08/05 06:18:37;;;;;;;0.10;0.10;;;;;;;;;;5090741;28;20040;-60
2023/08/05 06:21:06;;;;;;;0.00;0.00;;;;;;;;;;5091988;28;20047;-58
2023/08/05 06:23:33;;;;;;;0.00;0.00;;;;;;;;;;5092183;28;20417;-58
2023/08/05 06:26:01;;;;;;;0.00;0.00;;;;;;;;;;5092249;28;20040;-58
2023/08/05 06:28:30;;;;;;;0.00;0.00;;;;;;;;;;5092097;28;20040;-58
2023/08/05 06:30:57;;;;;;;0.00;0.00;;;;;;;;;;5092128;28;20044;-58
2023/08/05 06:33:25;;;;;;;0.00;0.00;;;;;;;;;;5091959;28;20491;-57
2023/08/05 06:35:52;;;;;;;0.00;0.00;;;;;;;;;;5092031;28;20042;-58
2023/08/05 06:38:20;;;;;;;0.00;0.00;;;;;;;;;;5073921;28;20517;-58
2023/08/05 06:40:51;;;;;;;0.00;0.00;;;;;;;;;;5091950;28;20048;-58
2023/08/05 06:43:18;;;;;;;0.00;0.00;;;;;;;;;;5092203;28;20049;-57
2023/08/05 06:45:46;;;;;;;0.00;0.00;;;;;;;;;;5091859;28;20093;-59
2023/08/05 06:48:14;;;;;;;0.00;0.00;;;;;;;;;;5091869;28;20127;-59
2023/08/05 06:50:41;;;;;;;0.00;0.00;;;;;;;;;;5091816;28;20064;-59
2023/08/05 06:53:08;;;;;;;0.00;0.00;;;;;;;;;;5092187;28;20043;-59
2023/08/05 06:55:37;;;;;;;0.10;0.10;;;;;;;;;;5092126;28;20482;-58
2023/08/05 06:58:04;;;;;;;0.00;0.00;;;;;;;;;;5091549;28;20040;-59
2023/08/05 07:00:34;;;;;;;0.00;0.00;;;;;;;;;;5091522;28;20064;-58
2023/08/05 07:03:02;;;;;;;0.10;0.10;;;;;;;;;;5091308;28;20048;-59
2023/08/05 07:05:30;;;;;;;0.10;0.10;;;;;;;;;;5091913;28;20048;-59
2023/08/05 07:07:57;;;;;;;0.10;0.10;;;;;;;;;;5090370;28;20049;-59
2023/08/05 07:10:24;;;;;;;0.10;0.10;;;;;;;;;;5093015;28;20199;-60
2023/08/05 07:12:53;;;;;;;0.10;0.10;;;;;;;;;;5096031;28;20048;-59
2023/08/05 07:15:20;;;;;;;0.00;0.00;;;;;;;;;;5095569;28;20127;-59
2023/08/05 07:17:47;;;;;;;0.00;0.00;;;;;;;;;;5095461;28;20479;-59
2023/08/05 07:20:17;;;;;;;0.00;0.00;;;;;;;;;;5095368;28;20059;-60
2023/08/05 07:22:45;;;;;;;0.10;0.10;;;;;;;;;;5095394;28;20072;-60
2023/08/05 07:25:12;;;;;;;0.00;0.00;;;;;;;;;;5095272;28;20139;-59
2023/08/05 07:27:39;;;;;;;0.10;0.10;;;;;;;;;;5095287;28;20052;-58
2023/08/05 07:30:08;;;;;;;0.00;0.00;;;;;;;;;;5095647;28;20139;-58
2023/08/05 07:32:36;;;;;;;0.00;0.00;;;;;;;;;;5094566;28;20044;-58
2023/08/05 07:35:03;;;;;;;0.10;0.10;;;;;;;;;;5095198;28;20086;-59
2023/08/05 07:37:32;;;;;;;0.03;0.03;;;;;;;;;;5094119;28;20048;-59
2023/08/05 07:39:59;;;;;;;0.10;0.10;;;;;;;;;;5095386;28;20429;-59
2023/08/05 07:42:29;;;;;;;0.10;0.10;;;;;;;;;;5094971;28;20126;-58
2023/08/05 07:44:57;;;;;;;0.10;0.10;;;;;;;;;;5094568;28;20055;-60
2023/08/05 07:47:25;;;;;;;0.10;0.10;;;;;;;;;;5094748;28;20043;-59
2023/08/05 07:49:52;;;;;;;0.10;0.10;;;;;;;;;;5094827;28;20357;-59
2023/08/05 07:52:19;;;;;;;0.10;0.10;;;;;;;;;;5094524;28;20483;-59
2023/08/05 07:54:47;;;;;;;0.10;0.10;;;;;;;;;;5094532;28;20119;-59
2023/08/05 07:57:14;;;;;;;0.10;0.10;;;;;;;;;;5076597;28;20047;-59
2023/08/05 07:59:41;;;;;;;0.10;0.10;;;;;;;;;;5094383;28;20139;-60
2023/08/05 08:02:10;;;;;;;0.10;0.10;;;;;;;;;;5094717;28;20135;-59
2023/08/05 08:04:39;;;;;;;0.20;0.20;;;;;;;;;;5094566;28;20040;-59
2023/08/05 08:07:08;;;;;;;0.10;0.10;;;;;;;;;;5094347;28;20040;-59
2023/08/05 08:09:38;;;;;;;0.17;0.17;;;;;;;;;;5093335;28;20463;-59
2023/08/05 08:12:05;;;;;;;0.10;0.10;;;;;;;;;;5094628;28;20063;-62
2023/08/05 08:14:32;;;;;;;0.10;0.10;;;;;;;;;;5094955;28;20490;-59
2023/08/05 08:17:00;;;;;;;0.10;0.10;;;;;;;;;;5093048;28;20101;-59
2023/08/05 08:19:27;;;;;;;0.10;0.10;;;;;;;;;;5094353;28;20375;-59
2023/08/05 08:21:56;;;;;;;0.10;0.10;;;;;;;;;;5093240;28;20055;-59
2023/08/05 08:24:23;;;;;;;0.10;0.10;;;;;;;;;;5093939;28;20134;-59
2023/08/05 08:26:53;;;;;;;0.00;0.00;;;;;;;;;;5092854;28;20068;-59
2023/08/05 08:29:20;;;;;;;0.00;0.00;;;;;;;;;;5094007;28;20048;-59
2023/08/05 08:31:47;;;;;;;0.00;0.00;;;;;;;;;;5093800;28;20493;-60
2023/08/05 08:34:14;;;;;;;0.00;0.00;;;;;;;;;;5092764;28;20048;-59
2023/08/05 08:36:41;;;;;;;0.10;0.10;;;;;;;;;;5092817;28;20055;-60
2023/08/05 08:39:13;;;;;;;0.00;0.00;;;;;;;;;;5094146;28;20127;-59
2023/08/05 08:41:41;;;;;;;0.10;0.10;;;;;;;;;;5094131;28;20044;-60
2023/08/05 08:44:09;;;;;;;0.10;0.10;;;;;;;;;;5092917;28;20044;-59
2023/08/05 08:46:36;;;;;;;0.10;0.10;;;;;;;;;;5092438;28;20044;-59
2023/08/05 08:49:03;;;;;;;0.10;0.10;;;;;;;;;;5093525;28;20107;-59
2023/08/05 08:51:31;;;;;;;0.00;0.00;;;;;;;;;;5092430;28;20074;-59
2023/08/05 08:53:58;;;;;;;0.10;0.10;;;;;;;;;;5092616;28;20151;-59
2023/08/05 08:56:26;;;;;;;0.00;0.00;;;;;;;;;;5092525;28;20578;-59
2023/08/05 08:58:54;;;;;;;0.10;0.10;;;;;;;;;;5093155;28;20105;-59
2023/08/05 09:01:21;;;;;;;0.10;0.10;;;;;;;;;;5092142;28;20044;-60
2023/08/05 09:03:49;;;;;;;0.00;0.00;;;;;;;;;;5093517;28;20476;-59
2023/08/05 09:06:17;;;;;;;0.00;0.00;;;;;;;;;;5093305;28;20477;-59
2023/08/05 09:08:44;;;;;;;0.00;0.00;;;;;;;;;;5092069;28;20052;-60
2023/08/05 09:11:11;;;;;;;0.05;0.05;;;;;;;;;;5091840;28;20454;-59
2023/08/05 09:13:40;;;;;;;0.00;0.00;;;;;;;;;;5093418;28;20465;-59
2023/08/05 09:16:08;;;;;;;0.00;0.00;;;;;;;;;;5093116;28;20385;-59
2023/08/05 09:18:35;;;;;;;0.00;0.00;;;;;;;;;;5091815;28;20040;-59
2023/08/05 09:21:02;;;;;;;0.00;0.00;;;;;;;;;;5093026;28;20101;-59
2023/08/05 09:23:29;;;;;;;0.00;0.00;;;;;;;;;;5092936;28;20047;-59
2023/08/05 09:25:56;;;;;;;0.00;0.00;;;;;;;;;;5093327;28;20503;-59
2023/08/05 09:28:31;;;;;;;0.00;0.00;;;;;;;;;;5093004;28;20450;-59
2023/08/05 09:31:15;;;;;;;0.00;0.00;;;;;;;;;;5091557;28;20445;-59
2023/08/05 09:33:43;;;;;;;0.00;0.00;;;;;;;;;;5093234;28;20134;-59
2023/08/05 09:36:10;;;;;;;0.00;0.00;;;;;;;;;;5092838;28;20497;-59
2023/08/05 09:38:39;;;;;;;0.00;0.00;;;;;;;;;;5092586;28;20143;-59
2023/08/05 09:41:07;;;;;;;0.00;0.00;;;;;;;;;;5092614;28;20118;-59
2023/08/05 09:43:38;;;;;;;0.00;0.00;;;;;;;;;;5092379;28;20130;-59
2023/08/05 09:46:07;;;;;;;0.00;0.00;;;;;;;;;;5093014;28;20402;-59
2023/08/05 09:48:36;;;;;;;0.00;0.00;;;;;;;;;;5092525;28;20382;-58
2023/08/05 09:51:04;;;;;;;0.00;0.00;;;;;;;;;;5091257;28;20101;-58
2023/08/05 09:53:33;;;;;;;0.00;0.00;;;;;;;;;;5092870;28;20070;-59
2023/08/05 09:56:01;;;;;;;0.00;0.00;;;;;;;;;;5092050;28;20040;-59
2023/08/05 09:58:32;;;;;;;0.00;0.00;;;;;;;;;;5092492;28;20143;-59
2023/08/05 10:00:59;;;;;;;0.00;0.00;;;;;;;;;;5092837;28;20036;-59
2023/08/05 10:03:28;;;;;;;0.00;0.00;;;;;;;;;;5092184;28;20043;-59
2023/08/05 10:05:58;;;;;;;0.00;0.00;;;;;;;;;;5090900;28;20433;-59
2023/08/05 10:08:25;;;;;;;0.00;0.00;;;;;;;;;;5092204;28;20040;-59
2023/08/05 10:10:52;;;;;;;0.00;0.00;;;;;;;;;;5091064;28;20447;-59
2023/08/05 10:13:20;;;;;;;0.00;0.00;;;;;;;;;;5092024;28;20040;-59
2023/08/05 10:15:48;;;;;;;0.00;0.00;;;;;;;;;;5092189;28;20036;-59
2023/08/05 10:18:15;;;;;;;0.00;0.00;;;;;;;;;;5091254;28;20095;-60
2023/08/05 10:20:43;;;;;;;0.00;0.00;;;;;;;;;;5091943;28;20048;-60
2023/08/05 10:23:13;;;;;;;0.00;0.00;;;;;;;;;;5092151;28;20048;-59
2023/08/05 10:25:41;;;;;;;0.00;0.00;;;;;;;;;;5091047;28;20040;-59
2023/08/05 10:28:09;;;;;;;0.00;0.00;;;;;;;;;;5091816;28;20041;-59
2023/08/05 10:30:43;;;;;;;0.00;0.00;;;;;;;;;;5091609;28;20123;-59
2023/08/05 10:33:10;;;;;;;0.00;0.00;;;;;;;;;;5092091;28;20060;-59
2023/08/05 10:35:39;;;;;;;0.00;0.00;;;;;;;;;;5091815;28;20123;-59
2023/08/05 10:38:08;;;;;;;0.08;0.08;;;;;;;;;;5091646;28;20040;-59
2023/08/05 10:40:40;;;;;;;0.00;0.00;;;;;;;;;;5090934;28;20055;-59
2023/08/05 10:43:08;;;;;;;0.00;0.00;;;;;;;;;;5092068;28;20059;-59
2023/08/05 10:45:36;;;;;;;0.00;0.00;;;;;;;;;;5093443;28;20084;-59
2023/08/05 10:48:07;;;;;;;0.00;0.00;;;;;;;;;;5095889;28;20094;-59
2023/08/05 10:50:41;;;;;;;0.00;0.00;;;;;;;;;;5096048;28;20055;-59
2023/08/05 10:53:09;;;;;;;0.00;0.00;;;;;;;;;;5096147;28;20078;-59
2023/08/05 10:55:47;;;;;;;0.00;0.00;;;;;;;;;;5095783;28;20044;-61
2023/08/05 10:58:14;;;;;;;0.00;0.00;;;;;;;;;;5096012;28;20093;-59
2023/08/05 11:00:42;;;;;;;0.00;0.00;;;;;;;;;;5095859;28;20131;-60
2023/08/05 11:03:33;;;;;;;0.32;0.10;;;;;;;;;;5095546;28;20494;-59
2023/08/05 11:06:00;;;;;;;0.00;0.00;;;;;;;;;;5080391;28;20044;-59
2023/08/05 11:08:31;;;;;;;0.00;0.00;;;;;;;;;;5095661;28;20455;-59
2023/08/05 11:11:00;;;;;;;0.00;0.00;;;;;;;;;;5095609;28;20044;-59
2023/08/05 11:13:27;;;;;;;0.00;0.00;;;;;;;;;;5095726;28;20135;-59
2023/08/05 11:16:07;;;;;;;0.00;0.00;;;;;;;;;;5095636;28;20054;-58
2023/08/05 11:18:36;;;;;;;0.00;0.00;;;;;;;;;;5095914;28;20044;-59
2023/08/05 11:21:04;;;;;;;0.00;0.00;;;;;;;;;;5094242;28;20040;-59
2023/08/05 11:23:32;;;;;;;0.00;0.00;;;;;;;;;;5094996;28;20051;-58
2023/08/05 11:26:01;;;;;;;0.00;0.00;;;;;;;;;;5095234;28;20040;-58
2023/08/05 11:28:28;;;;;;;0.00;0.00;;;;;;;;;;5095723;28;20039;-59
2023/08/05 11:30:56;;;;;;;0.00;0.00;;;;;;;;;;5095251;28;20093;-59
2023/08/05 11:33:23;;;;;;;0.00;0.00;;;;;;;;;;5095334;28;20051;-61
2023/08/05 11:35:52;;;;;;;0.00;0.00;;;;;;;;;;5095155;28;20101;-59
2023/08/05 11:38:19;;;;;;;0.00;0.00;;;;;;;;;;5094885;28;20048;-59
2023/08/05 11:40:46;;;;;;;0.00;0.00;;;;;;;;;;5076862;28;20123;-59
2023/08/05 11:43:19;;;;;;;0.00;0.00;;;;;;;;;;5095245;28;20051;-59
2023/08/05 11:45:46;;;;;;;0.00;0.00;;;;;;;;;;5094142;28;20135;-59
2023/08/05 11:48:23;;;;;;;0.00;0.00;;;;;;;;;;5094951;28;20048;-60
2023/08/05 11:50:50;;;;;;;0.00;0.00;;;;;;;;;;5094731;28;20048;-59
2023/08/05 11:53:18;;;;;;;0.00;0.00;;;;;;;;;;5094585;28;20150;-59
2023/08/05 11:55:46;;;;;;;0.00;0.00;;;;;;;;;;5094647;28;20080;-60
2023/08/05 11:58:13;;;;;;;0.00;0.00;;;;;;;;;;5075288;28;20055;-59
2023/08/05 12:00:45;;;;;;;0.00;0.00;;;;;;;;;;5094933;28;20061;-59
2023/08/05 12:03:13;;;;;;;0.00;0.00;;;;;;;;;;5092815;28;20099;-59
2023/08/05 12:05:41;;;;;;;0.00;0.00;;;;;;;;;;5094640;28;20059;-59
2023/08/05 12:08:08;;;;;;;0.00;0.00;;;;;;;;;;5093413;28;20048;-59
2023/08/05 12:10:35;;;;;;;0.00;0.00;;;;;;;;;;5094543;28;20121;-59
2023/08/05 12:13:08;;;;;;;0.00;0.00;;;;;;;;;;5094303;28;20068;-59
2023/08/05 12:15:37;;;;;;;0.00;0.00;;;;;;;;;;5094364;28;20048;-59
2023/08/05 12:18:06;;;;;;;0.00;0.00;;;;;;;;;;5094595;28;20453;-59
2023/08/05 12:20:33;;;;;;;0.00;0.00;;;;;;;;;;5094279;28;20044;-59
2023/08/05 12:23:01;;;;;;;0.00;0.00;;;;;;;;;;5093873;28;20054;-59
2023/08/05 12:25:28;;;;;;;0.00;0.00;;;;;;;;;;5094015;28;20491;-58
2023/08/05 12:27:55;;;;;;;0.00;0.00;;;;;;;;;;5093079;28;20090;-59
2023/08/05 12:30:22;;;;;;;0.00;0.00;;;;;;;;;;5094275;28;20044;-59
2023/08/05 12:32:49;;;;;;;0.00;0.00;;;;;;;;;;5094075;28;20051;-59
2023/08/05 12:35:18;;;;;;;0.00;0.00;;;;;;;;;;5093998;28;20082;-59
2023/08/05 12:37:45;;;;;;;0.00;0.00;;;;;;;;;;5093848;28;20188;-59
2023/08/05 12:40:12;;;;;;;0.00;0.00;;;;;;;;;;5094212;28;20421;-59
2023/08/05 12:42:41;;;;;;;0.00;0.00;;;;;;;;;;5093596;28;20059;-59
2023/08/05 12:45:09;;;;;;;0.00;0.00;;;;;;;;;;5093586;28;20048;-60
2023/08/05 12:47:36;;;;;;;0.00;0.00;;;;;;;;;;5093923;28;20556;-60
2023/08/05 12:50:04;;;;;;;0.00;0.00;;;;;;;;;;5093544;28;20040;-59
2023/08/05 12:52:32;;;;;;;0.00;0.00;;;;;;;;;;5093773;28;20101;-60
2023/08/05 12:55:00;;;;;;;0.00;0.00;;;;;;;;;;5093472;28;20044;-61
2023/08/05 12:57:27;;;;;;;0.00;0.00;;;;;;;;;;5092699;28;20055;-59
2023/08/05 12:59:54;;;;;;;0.00;0.00;;;;;;;;;;5093909;28;20052;-59
2023/08/05 13:02:23;;;;;;;0.00;0.00;;;;;;;;;;5093886;28;20052;-59
2023/08/05 13:04:51;;;;;;;0.00;0.00;;;;;;;;;;5093732;28;20200;-60
2023/08/05 13:07:18;;;;;;;0.00;0.00;;;;;;;;;;5093723;28;20036;-60
2023/08/05 13:09:47;;;;;;;0.00;0.00;;;;;;;;;;5093438;28;20043;-58
2023/08/05 13:12:14;;;;;;;0.00;0.00;;;;;;;;;;5093546;28;20482;-59
2023/08/05 13:14:41;;;;;;;0.00;0.00;;;;;;;;;;5093421;28;20053;-59
2023/08/05 13:17:09;;;;;;;0.00;0.00;;;;;;;;;;5093082;28;20478;-60
2023/08/05 13:19:36;;;;;;;0.00;0.00;;;;;;;;;;5093036;28;20048;-60
2023/08/05 13:22:03;;;;;;;0.00;0.00;;;;;;;;;;5093385;28;20044;-60
2023/08/05 13:24:32;;;;;;;0.00;0.00;;;;;;;;;;5093284;28;20072;-60
2023/08/05 13:27:02;;;;;;;0.00;0.00;;;;;;;;;;5093884;28;20126;-60
2023/08/05 13:29:29;;;;;;;0.00;0.00;;;;;;;;;;5093868;28;20067;-60
2023/08/05 13:31:56;;;;;;;0.00;0.00;;;;;;;;;;5092986;28;20127;-59
2023/08/05 13:34:23;;;;;;;0.00;0.00;;;;;;;;;;5091884;28;20054;-59
2023/08/05 13:36:51;;;;;;;0.00;0.00;;;;;;;;;;5092777;28;20040;-59
2023/08/05 13:39:18;;;;;;;0.00;0.00;;;;;;;;;;5092930;28;20055;-58
2023/08/05 13:41:45;;;;;;;0.00;0.00;;;;;;;;;;5092644;28;20036;-59
2023/08/05 13:44:13;;;;;;;0.00;0.00;;;;;;;;;;5092483;28;20123;-59
2023/08/05 13:46:44;;;;;;;0.00;0.00;;;;;;;;;;5092451;28;20044;-59
2023/08/05 13:49:11;;;;;;;0.00;0.00;;;;;;;;;;5091424;28;20036;-59
2023/08/05 13:51:40;;;;;;;0.00;0.00;;;;;;;;;;5092839;28;20058;-58
2023/08/05 13:54:11;;;;;;;0.00;0.00;;;;;;;;;;5091961;28;20130;-59
2023/08/05 13:56:38;;;;;;;0.00;0.00;;;;;;;;;;5092338;28;20075;-59
2023/08/05 13:59:05;;;;;;;0.00;0.00;;;;;;;;;;5091885;28;20495;-59
2023/08/05 14:01:34;;;;;;;0.00;0.00;;;;;;;;;;5092431;28;20475;-60
2023/08/05 14:04:01;;;;;;;0.00;0.00;;;;;;;;;;5092187;28;20052;-60
2023/08/05 14:06:28;;;;;;;0.00;0.00;;;;;;;;;;5092282;28;20035;-58
2023/08/05 14:08:56;;;;;;;0.00;0.00;;;;;;;;;;5092302;28;20080;-60
2023/08/05 14:11:24;;;;;;;0.00;0.00;;;;;;;;;;5092499;28;20036;-58
2023/08/05 14:13:51;;;;;;;0.00;0.00;;;;;;;;;;5091217;28;20094;-60
2023/08/05 14:16:19;;;;;;;0.00;0.00;;;;;;;;;;5092162;28;20048;-58
2023/08/05 14:18:51;;;;;;;0.00;0.00;;;;;;;;;;5092588;28;20463;-60
2023/08/05 14:21:18;;;;;;;0.00;0.00;;;;;;;;;;5089671;28;20044;-58
2023/08/05 14:23:47;;;;;;;0.00;0.00;;;;;;;;;;5092323;28;20047;-58
2023/08/05 14:26:14;;;;;;;0.00;0.00;;;;;;;;;;5092726;28;20052;-61
2023/08/05 14:28:42;;;;;;;0.00;0.00;;;;;;;;;;5090150;28;20043;-59
2023/08/05 14:31:09;;;;;;;0.00;0.00;;;;;;;;;;5092141;28;20113;-58
2023/08/05 14:33:36;;;;;;;0.00;0.00;;;;;;;;;;5092290;28;20394;-59
2023/08/05 14:36:11;;;;;;;0.00;0.00;;;;;;;;;;5092222;28;20493;-59
2023/08/05 14:38:38;;;;;;;0.00;0.00;;;;;;;;;;5091925;28;20587;-59
2023/08/05 14:41:05;;;;;;;0.00;0.00;;;;;;;;;;5091183;28;20547;-59
2023/08/05 14:43:33;;;;;;;0.00;0.00;;;;;;;;;;5091405;28;20044;-60
2023/08/05 14:46:03;;;;;;;0.00;0.00;;;;;;;;;;5091774;28;20051;-60
2023/08/05 14:48:30;;;;;;;0.00;0.00;;;;;;;;;;5092052;28;20044;-59